createdAt,value
2018-09-25T00:01:34.674Z,10.86
2018-09-25T00:04:08.425Z,10.74
2018-09-25T00:06:42.086Z,10.79
2018-09-25T00:09:15.943Z,10.77
2018-09-25T00:11:49.576Z,10.81
2018-09-25T00:14:23.382Z,10.79
2018-09-25T00:16:56.982Z,10.73
2018-09-25T00:19:30.741Z,10.43
2018-09-25T00:22:04.297Z,10.31
2018-09-25T00:24:38.529Z,10.40
2018-09-25T00:27:12.186Z,10.38
2018-09-25T00:29:45.966Z,10.39
2018-09-25T00:32:19.618Z,10.33
2018-09-25T00:34:53.458Z,10.27
2018-09-25T00:37:27.284Z,10.62
2018-09-25T00:40:01.110Z,10.48
2018-09-25T00:42:34.966Z,10.40
2018-09-25T00:45:08.814Z,10.42
2018-09-25T00:47:42.577Z,10.37
2018-09-25T00:50:16.427Z,10.31
2018-09-25T00:52:50.215Z,10.26
2018-09-25T00:55:23.997Z,10.28
2018-09-25T00:57:57.574Z,10.03
2018-09-25T01:00:31.403Z,10.19
2018-09-25T01:03:05.068Z,10.25
2018-09-25T01:05:38.938Z,10.36
2018-09-25T01:08:12.621Z,10.48
2018-09-25T01:10:46.394Z,10.45
2018-09-25T01:13:20.177Z,10.39
2018-09-25T01:15:53.913Z,10.41
2018-09-25T01:18:27.693Z,10.53
2018-09-25T01:21:01.421Z,10.49
2018-09-25T01:23:35.267Z,10.30
2018-09-25T01:26:08.833Z,10.54
2018-09-25T01:28:42.517Z,10.44
2018-09-25T01:31:16.298Z,10.47
2018-09-25T01:33:49.969Z,10.40
2018-09-25T01:36:23.474Z,10.51
2018-09-25T01:38:57.065Z,10.50
2018-09-25T01:41:30.661Z,10.51
2018-09-25T01:44:04.324Z,10.48
2018-09-25T01:46:38.140Z,10.57
2018-09-25T01:49:11.865Z,10.48
2018-09-25T01:51:45.408Z,10.47
2018-09-25T01:54:19.150Z,10.60
2018-09-25T01:56:52.970Z,10.51
2018-09-25T01:59:26.654Z,10.54
2018-09-25T02:02:00.386Z,10.67
2018-09-25T02:04:34.070Z,10.64
2018-09-25T02:07:07.898Z,10.53
2018-09-25T02:09:41.477Z,10.51
2018-09-25T02:12:15.305Z,10.45
2018-09-25T02:14:48.961Z,10.47
2018-09-25T02:17:22.689Z,10.36
2018-09-25T02:19:56.378Z,10.44
2018-09-25T02:22:30.161Z,10.31
2018-09-25T02:25:03.941Z,10.34
2018-09-25T02:27:37.681Z,10.26
2018-09-25T02:30:11.346Z,10.22
2018-09-25T02:32:45.097Z,10.30
2018-09-25T02:35:18.829Z,10.28
2018-09-25T02:37:52.458Z,10.20
2018-09-25T02:40:26.245Z,10.18
2018-09-25T02:43:00.077Z,10.24
2018-09-25T02:45:33.805Z,10.28
2018-09-25T02:48:08.206Z,10.36
2018-09-25T02:50:41.865Z,10.38
2018-09-25T02:53:15.622Z,10.32
2018-09-25T02:55:49.254Z,10.45
2018-09-25T02:58:22.846Z,10.39
2018-09-25T03:00:56.486Z,10.29
2018-09-25T03:03:30.313Z,10.03
2018-09-25T03:06:04.011Z,10.04
2018-09-25T03:08:38.538Z,10.08
2018-09-25T03:11:12.138Z,10.11
2018-09-25T03:13:45.940Z,9.97
2018-09-25T03:16:19.598Z,10.06
2018-09-25T03:18:53.451Z,10.01
2018-09-25T03:21:27.214Z,10.09
2018-09-25T03:24:00.873Z,9.98
2018-09-25T03:26:34.497Z,9.91
2018-09-25T03:29:08.025Z,9.94
2018-09-25T03:31:41.654Z,9.98
2018-09-25T03:34:15.529Z,10.10
2018-09-25T03:36:49.016Z,10.21
2018-09-25T03:39:22.751Z,10.12
2018-09-25T03:41:56.365Z,10.15
2018-09-25T03:44:30.179Z,10.17
2018-09-25T03:47:03.713Z,10.11
2018-09-25T03:49:37.389Z,9.95
2018-09-25T03:52:11.021Z,9.75
2018-09-25T03:54:44.797Z,9.76
2018-09-25T03:57:18.564Z,10.01
2018-09-25T03:59:52.362Z,9.98
2018-09-25T04:02:25.953Z,10.18
2018-09-25T04:04:59.801Z,10.13
2018-09-25T04:07:33.465Z,10.15
2018-09-25T04:10:07.324Z,10.06
2018-09-25T04:12:40.977Z,10.21
2018-09-25T04:15:14.828Z,10.17
2018-09-25T04:17:48.785Z,10.12
2018-09-25T04:20:22.493Z,10.13
2018-09-25T04:22:56.221Z,10.03
2018-09-25T04:25:29.948Z,10.00
2018-09-25T04:28:03.591Z,10.03
2018-09-25T04:30:37.433Z,10.03
2018-09-25T04:33:11.149Z,10.01
2018-09-25T04:35:44.871Z,10.10
2018-09-25T04:38:18.510Z,9.99
2018-09-25T04:40:52.254Z,10.12
2018-09-25T04:43:25.847Z,10.09
2018-09-25T04:45:59.593Z,10.22
2018-09-25T04:48:33.202Z,10.15
2018-09-25T04:51:06.947Z,10.14
2018-09-25T04:53:40.497Z,10.15
2018-09-25T04:56:14.257Z,10.16
2018-09-25T04:58:48.014Z,10.27
2018-09-25T05:01:21.766Z,10.20
2018-09-25T05:03:55.418Z,10.14
2018-09-25T05:06:29.209Z,10.06
2018-09-25T05:09:02.885Z,10.10
2018-09-25T05:11:37.002Z,10.15
2018-09-25T05:14:10.570Z,10.14
2018-09-25T05:16:44.203Z,10.27
2018-09-25T05:19:17.864Z,10.09
2018-09-25T05:21:51.550Z,10.36
2018-09-25T05:24:25.386Z,10.41
2018-09-25T05:26:59.181Z,10.49
2018-09-25T05:29:32.884Z,10.50
2018-09-25T05:32:06.566Z,10.46
2018-09-25T05:34:40.209Z,10.45
2018-09-25T05:37:13.778Z,10.48
2018-09-25T05:39:47.298Z,10.42
2018-09-25T05:42:20.807Z,10.39
2018-09-25T05:44:54.475Z,10.43
2018-09-25T05:47:28.120Z,10.52
2018-09-25T05:50:01.705Z,10.67
2018-09-25T05:52:35.464Z,10.59
2018-09-25T05:55:09.249Z,10.55
2018-09-25T05:57:43.024Z,10.64
2018-09-25T06:00:16.936Z,10.65
2018-09-25T06:02:50.759Z,10.64
2018-09-25T06:05:24.450Z,10.69
2018-09-25T06:07:58.212Z,10.75
2018-09-25T06:10:31.832Z,10.72
2018-09-25T06:13:05.602Z,10.68
2018-09-25T06:15:39.443Z,10.65
2018-09-25T06:18:13.174Z,10.71
2018-09-25T06:20:46.806Z,10.68
2018-09-25T06:23:20.482Z,10.74
2018-09-25T06:25:54.289Z,10.82
2018-09-25T06:28:28.094Z,10.87
2018-09-25T06:31:01.753Z,10.97
2018-09-25T06:33:35.377Z,11.06
2018-09-25T06:36:08.969Z,11.18
2018-09-25T06:38:42.767Z,11.29
2018-09-25T06:41:16.375Z,11.34
2018-09-25T06:43:50.199Z,11.44
2018-09-25T06:46:23.981Z,11.59
2018-09-25T06:48:57.716Z,11.57
2018-09-25T06:51:31.618Z,11.60
2018-09-25T06:54:05.345Z,11.67
2018-09-25T06:56:39.955Z,11.71
2018-09-25T06:59:13.748Z,11.75
2018-09-25T07:01:47.641Z,11.80
2018-09-25T07:04:21.269Z,11.98
2018-09-25T07:06:55.002Z,12.06
2018-09-25T07:09:28.723Z,12.07
2018-09-25T07:12:02.320Z,12.04
2018-09-25T07:14:36.095Z,12.12
2018-09-25T07:17:09.758Z,12.18
2018-09-25T07:19:43.486Z,12.29
2018-09-25T07:22:17.133Z,12.41
2018-09-25T07:24:51.069Z,12.42
2018-09-25T07:27:24.727Z,12.48
2018-09-25T07:29:58.424Z,12.61
2018-09-25T07:32:31.930Z,12.55
2018-09-25T07:35:05.585Z,12.45
2018-09-25T07:37:39.089Z,12.41
2018-09-25T07:40:12.814Z,12.43
2018-09-25T07:42:46.371Z,12.50
2018-09-25T07:45:20.016Z,12.58
2018-09-25T07:47:53.729Z,12.71
2018-09-25T07:50:27.609Z,12.79
2018-09-25T07:53:01.406Z,12.97
2018-09-25T07:55:35.252Z,13.10
2018-09-25T07:58:08.781Z,13.33
2018-09-25T08:00:42.277Z,13.51
2018-09-25T08:03:15.923Z,13.62
2018-09-25T08:05:49.497Z,13.73
2018-09-25T08:08:23.305Z,13.73
2018-09-25T08:10:57.186Z,13.68
2018-09-25T08:13:30.817Z,13.56
2018-09-25T08:16:04.318Z,13.36
2018-09-25T08:18:38.038Z,13.21
2018-09-25T08:21:11.708Z,13.42
2018-09-25T08:23:45.382Z,13.45
2018-09-25T08:26:18.898Z,13.34
2018-09-25T08:28:52.626Z,13.23
2018-09-25T08:31:26.486Z,13.15
2018-09-25T08:34:00.245Z,13.15
2018-09-25T08:36:34.457Z,13.14
2018-09-25T08:39:08.799Z,13.21
2018-09-25T08:41:42.506Z,13.25
2018-09-25T08:44:16.082Z,13.31
2018-09-25T08:46:49.810Z,13.18
2018-09-25T08:49:23.455Z,13.12
2018-09-25T08:51:57.145Z,13.00
2018-09-25T08:54:30.857Z,13.02
2018-09-25T08:57:04.643Z,13.10
2018-09-25T08:59:38.812Z,13.24
2018-09-25T09:02:12.525Z,13.47
2018-09-25T09:04:46.030Z,13.69
2018-09-25T09:07:19.734Z,13.86
2018-09-25T09:09:53.463Z,13.91
2018-09-25T09:12:27.369Z,14.07
2018-09-25T09:15:01.015Z,14.37
2018-09-25T09:17:34.822Z,14.55
2018-09-25T09:20:08.878Z,14.65
2018-09-25T09:22:42.627Z,14.76
2018-09-25T09:25:16.341Z,14.80
2018-09-25T09:27:50.059Z,14.78
2018-09-25T09:30:23.593Z,14.77
2018-09-25T09:32:57.234Z,14.82
2018-09-25T09:35:30.805Z,14.94
2018-09-25T09:38:04.466Z,15.04
2018-09-25T09:40:38.325Z,15.13
2018-09-25T09:43:11.949Z,15.17
2018-09-25T09:45:45.786Z,15.22
2018-09-25T09:48:19.485Z,15.23
2018-09-25T09:50:53.446Z,15.39
2018-09-25T09:53:27.457Z,15.50
2018-09-25T09:56:01.296Z,15.43
2018-09-25T09:58:34.840Z,15.28
2018-09-25T10:01:09.416Z,15.20
2018-09-25T10:03:43.182Z,15.19
2018-09-25T10:06:16.701Z,15.08
2018-09-25T10:08:50.546Z,15.00
2018-09-25T10:11:24.261Z,14.78
2018-09-25T10:14:10.631Z,14.57
2018-09-25T10:16:44.485Z,14.46
2018-09-25T10:19:25.024Z,14.25
2018-09-25T10:21:58.947Z,13.87
2018-09-25T10:24:32.794Z,13.70
2018-09-25T10:27:06.732Z,13.82
2018-09-25T10:29:40.779Z,13.98
2018-09-25T10:32:14.682Z,13.82
2018-09-25T10:34:48.536Z,13.85
2018-09-25T10:37:22.389Z,13.76
2018-09-25T10:39:55.973Z,13.88
2018-09-25T10:42:29.729Z,14.03
2018-09-25T10:45:03.240Z,14.20
2018-09-25T10:47:37.110Z,14.32
2018-09-25T10:50:10.881Z,14.42
2018-09-25T10:52:44.492Z,14.60
2018-09-25T10:55:18.248Z,14.71
2018-09-25T10:57:51.897Z,14.83
2018-09-25T11:00:25.633Z,14.73
2018-09-25T11:02:59.349Z,14.46
2018-09-25T11:05:32.866Z,14.26
2018-09-25T11:08:06.657Z,14.12
2018-09-25T11:10:40.393Z,14.23
2018-09-25T11:13:14.224Z,14.44
2018-09-25T11:15:47.816Z,14.66
2018-09-25T11:18:21.403Z,14.78
2018-09-25T11:20:55.205Z,14.77
2018-09-25T11:23:29.086Z,14.75
2018-09-25T11:26:02.682Z,14.72
2018-09-25T11:28:36.297Z,14.60
2018-09-25T11:31:09.966Z,14.48
2018-09-25T11:33:43.546Z,14.38
2018-09-25T11:36:17.047Z,14.38
2018-09-25T11:38:51.521Z,14.30
2018-09-25T11:41:25.277Z,14.35
2018-09-25T11:43:58.948Z,14.41
2018-09-25T11:46:32.880Z,14.39
2018-09-25T11:49:06.730Z,14.37
2018-09-25T11:51:40.546Z,14.42
2018-09-25T11:54:14.366Z,14.47
2018-09-25T11:56:47.957Z,14.41
2018-09-25T11:59:21.794Z,14.34
2018-09-25T12:01:55.450Z,14.38
2018-09-25T12:04:29.308Z,14.37
2018-09-25T12:07:02.961Z,14.47
2018-09-25T12:09:36.810Z,14.44
2018-09-25T12:12:10.465Z,14.43
2018-09-25T12:14:44.454Z,14.51
2018-09-25T12:17:18.128Z,14.42
2018-09-25T12:19:51.655Z,14.30
2018-09-25T12:22:25.225Z,14.26
2018-09-25T12:24:58.747Z,14.18
2018-09-25T12:27:32.419Z,13.99
2018-09-25T12:30:05.934Z,14.05
2018-09-25T12:32:39.508Z,14.14
2018-09-25T12:35:13.097Z,14.22
2018-09-25T12:37:46.725Z,14.24
2018-09-25T12:40:20.498Z,14.34
2018-09-25T12:42:54.078Z,14.41
2018-09-25T12:45:27.821Z,14.52
2018-09-25T12:48:01.484Z,14.49
2018-09-25T12:50:35.349Z,14.47
2018-09-25T12:53:08.981Z,14.52
2018-09-25T12:55:42.662Z,14.66
2018-09-25T12:58:16.274Z,14.80
2018-09-25T13:00:50.165Z,14.91
2018-09-25T13:03:23.949Z,14.83
2018-09-25T13:05:57.475Z,14.86
2018-09-25T13:08:31.190Z,14.94
2018-09-25T13:11:04.934Z,15.05
2018-09-25T13:13:39.077Z,15.16
2018-09-25T13:16:13.185Z,15.28
2018-09-25T13:18:46.674Z,15.35
2018-09-25T13:21:20.400Z,15.38
2018-09-25T13:23:54.236Z,15.53
2018-09-25T13:26:27.921Z,15.71
2018-09-25T13:29:01.438Z,15.80
2018-09-25T13:31:34.973Z,15.86
2018-09-25T13:34:08.941Z,15.89
2018-09-25T13:36:42.850Z,15.99
2018-09-25T13:39:16.569Z,16.07
2018-09-25T13:41:50.397Z,16.20
2018-09-25T13:44:24.065Z,16.29
2018-09-25T13:46:57.678Z,16.37
2018-09-25T13:49:31.350Z,16.47
2018-09-25T13:52:05.174Z,16.54
2018-09-25T13:54:38.714Z,16.67
2018-09-25T13:57:12.542Z,16.65
2018-09-25T13:59:46.379Z,16.69
2018-09-25T14:02:20.169Z,16.70
2018-09-25T14:04:53.900Z,16.80
2018-09-25T14:07:27.810Z,16.99
2018-09-25T14:10:01.667Z,17.29
2018-09-25T14:12:35.457Z,17.47
2018-09-25T14:15:09.067Z,17.71
2018-09-25T14:17:42.866Z,18.00
2018-09-25T14:20:16.550Z,18.03
2018-09-25T14:22:50.019Z,18.38
2018-09-25T14:25:23.753Z,18.54
2018-09-25T14:27:57.569Z,18.70
2018-09-25T14:30:31.214Z,19.01
2018-09-25T14:33:05.035Z,19.13
2018-09-25T14:35:38.673Z,19.34
2018-09-25T14:38:12.470Z,19.60
2018-09-25T14:40:46.182Z,20.00
2018-09-25T14:43:20.050Z,20.25
2018-09-25T14:45:53.686Z,20.23
2018-09-25T14:48:27.454Z,20.35
2018-09-25T14:51:01.057Z,20.75
2018-09-25T14:53:34.608Z,21.16
2018-09-25T14:56:09.141Z,21.35
2018-09-25T14:58:42.970Z,21.57
2018-09-25T15:01:16.663Z,22.10
2018-09-25T15:03:50.329Z,23.19
2018-09-25T15:06:28.013Z,24.76
2018-09-25T15:09:02.117Z,26.14
2018-09-25T15:11:43.260Z,27.28
2018-09-25T15:14:25.939Z,28.40
2018-09-25T15:16:59.979Z,29.62
2018-09-25T15:19:33.801Z,30.36
2018-09-25T15:22:07.685Z,31.42
2018-09-25T15:24:41.275Z,31.64
2018-09-25T15:27:15.891Z,32.26
2018-09-25T15:29:49.712Z,33.15
2018-09-25T15:32:23.592Z,33.53
2018-09-25T15:34:57.392Z,34.57
2018-09-25T15:37:31.029Z,33.41
2018-09-25T15:40:04.930Z,33.09
2018-09-25T15:42:38.429Z,33.38
2018-09-25T15:45:12.317Z,34.32
2018-09-25T15:47:46.014Z,33.94
2018-09-25T15:50:19.874Z,32.87
2018-09-25T15:52:53.693Z,34.04
2018-09-25T15:55:27.622Z,32.89
2018-09-25T15:58:01.306Z,32.35
2018-09-25T16:00:34.998Z,32.43
2018-09-25T16:03:08.766Z,33.10
2018-09-25T16:05:42.534Z,32.53
2018-09-25T16:08:16.206Z,29.36
2018-09-25T16:10:49.994Z,26.69
2018-09-25T16:13:23.938Z,23.59
2018-09-25T16:15:57.573Z,21.71
2018-09-25T16:18:31.682Z,21.02
2018-09-25T16:21:05.422Z,19.94
2018-09-25T16:23:39.121Z,19.02
2018-09-25T16:26:13.085Z,18.62
2018-09-25T16:28:46.983Z,17.98
2018-09-25T16:31:21.050Z,17.52
2018-09-25T16:33:54.737Z,17.14
2018-09-25T16:36:28.321Z,16.76
2018-09-25T16:41:46.101Z,16.17
2018-09-25T16:50:24.902Z,15.79
2018-09-25T16:52:58.570Z,15.62
2018-09-25T16:55:32.373Z,15.50
2018-09-25T16:58:06.041Z,15.27
2018-09-25T17:00:39.863Z,15.23
2018-09-25T17:03:13.424Z,15.13
2018-09-25T17:05:47.227Z,15.06
2018-09-25T17:08:20.811Z,14.99
2018-09-25T17:10:54.706Z,14.90
2018-09-25T17:13:28.407Z,14.89
2018-09-25T17:16:02.086Z,14.77
2018-09-25T17:18:35.703Z,14.73
2018-09-25T17:21:09.509Z,14.70
2018-09-25T17:23:43.189Z,14.60
2018-09-25T17:26:16.977Z,14.56
2018-09-25T17:28:50.598Z,14.50
2018-09-25T17:31:24.478Z,14.47
2018-09-25T17:33:58.113Z,14.41
2018-09-25T17:36:32.032Z,14.36
2018-09-25T17:39:05.750Z,14.40
2018-09-25T17:41:39.385Z,14.22
2018-09-25T17:44:12.998Z,14.17
2018-09-25T17:46:46.721Z,14.19
2018-09-25T17:49:20.608Z,14.06
2018-09-25T17:51:54.364Z,14.02
2018-09-25T17:54:28.092Z,14.02
2018-09-25T17:57:01.879Z,13.89
2018-09-25T17:59:35.501Z,13.83
2018-09-25T18:02:10.233Z,13.82
2018-09-25T18:04:43.879Z,13.75
2018-09-25T18:07:17.667Z,13.71
2018-09-25T18:09:51.286Z,13.68
2018-09-25T18:12:25.170Z,13.66
2018-09-25T18:14:58.777Z,13.61
2018-09-25T18:17:32.607Z,13.65
2018-09-25T18:20:06.530Z,13.50
2018-09-25T18:22:40.508Z,13.46
2018-09-25T18:25:14.204Z,13.43
2018-09-25T18:27:47.933Z,13.57
2018-09-25T18:30:24.925Z,13.47
2018-09-25T18:32:59.030Z,13.40
2018-09-25T18:35:33.557Z,13.33
2018-09-25T18:38:07.202Z,13.28
2018-09-25T18:40:40.903Z,13.23
2018-09-25T18:43:14.865Z,13.26
2018-09-25T18:45:48.709Z,13.36
2018-09-25T18:48:22.685Z,13.23
2018-09-25T18:50:56.357Z,13.18
2018-09-25T18:53:30.245Z,13.12
2018-09-25T18:56:03.888Z,13.16
2018-09-25T18:58:37.741Z,13.09
2018-09-25T19:01:11.399Z,13.08
2018-09-25T19:03:45.326Z,13.07
2018-09-25T19:06:19.018Z,13.01
2018-09-25T19:08:52.832Z,12.99
2018-09-25T19:11:26.498Z,12.98
2018-09-25T19:14:07.202Z,12.95
2018-09-25T19:16:40.914Z,12.88
2018-09-25T19:19:14.761Z,12.86
2018-09-25T19:21:48.456Z,12.90
2018-09-25T19:24:22.153Z,12.86
2018-09-25T19:26:55.933Z,12.79
2018-09-25T19:29:29.741Z,12.79
2018-09-25T19:32:03.486Z,12.78
2018-09-25T19:34:37.641Z,12.75
2018-09-25T19:37:11.270Z,12.76
2018-09-25T19:39:45.098Z,12.70
2018-09-25T19:42:18.745Z,12.71
2018-09-25T19:44:52.547Z,12.52
2018-09-25T19:47:26.159Z,12.48
2018-09-25T19:49:59.832Z,12.58
2018-09-25T19:52:33.458Z,12.52
2018-09-25T19:55:07.222Z,12.47
2018-09-25T19:57:40.955Z,12.45
2018-09-25T20:00:14.822Z,12.37
2018-09-25T20:02:48.781Z,12.34
2018-09-25T20:05:22.689Z,12.41
2018-09-25T20:07:56.374Z,12.40
2018-09-25T20:10:30.226Z,12.38
2018-09-25T20:13:03.807Z,12.45
2018-09-25T20:15:37.578Z,12.37
2018-09-25T20:18:11.451Z,12.33
2018-09-25T20:20:45.521Z,12.26
2018-09-25T20:23:19.218Z,12.34
2018-09-25T20:25:53.050Z,12.33
2018-09-25T20:28:26.760Z,12.25
2018-09-25T20:31:00.526Z,12.19
2018-09-25T20:33:34.254Z,12.27
2018-09-25T20:36:08.194Z,12.32
2018-09-25T20:38:41.910Z,12.25
2018-09-25T20:41:15.546Z,12.33
2018-09-25T20:43:49.335Z,12.20
2018-09-25T20:46:23.089Z,12.24
2018-09-25T20:48:56.773Z,12.28
2018-09-25T20:51:30.499Z,12.11
2018-09-25T20:54:04.217Z,12.03
2018-09-25T20:56:38.021Z,11.96
2018-09-25T20:59:12.297Z,11.90
2018-09-25T21:01:45.897Z,11.93
2018-09-25T21:04:19.524Z,11.87
2018-09-25T21:06:53.159Z,11.88
2018-09-25T21:09:27.056Z,11.82
2018-09-25T21:12:00.677Z,11.84
2018-09-25T21:14:34.311Z,12.02
2018-09-25T21:17:08.196Z,11.98
2018-09-25T21:19:41.974Z,11.88
2018-09-25T21:22:16.710Z,11.91
2018-09-25T21:24:50.395Z,11.83
2018-09-25T21:27:24.114Z,11.80
2018-09-25T21:29:57.817Z,11.87
2018-09-25T21:32:31.346Z,11.94
2018-09-25T21:35:05.078Z,11.96
2018-09-25T21:37:38.900Z,11.75
2018-09-25T21:40:12.622Z,11.67
2018-09-25T21:42:46.450Z,11.62
2018-09-25T21:45:20.161Z,11.64
2018-09-25T21:47:53.815Z,11.52
2018-09-25T21:50:27.446Z,11.63
2018-09-25T21:53:01.025Z,11.59
2018-09-25T21:55:34.629Z,11.49
2018-09-25T21:58:08.521Z,11.50
2018-09-25T22:00:42.082Z,11.49
2018-09-25T22:03:15.637Z,11.51
2018-09-25T22:05:49.392Z,11.44
2018-09-25T22:08:22.945Z,11.30
2018-09-25T22:10:56.574Z,11.32
2018-09-25T22:13:30.382Z,11.23
2018-09-25T22:16:04.018Z,11.26
2018-09-25T22:18:37.538Z,11.18
2018-09-25T22:21:11.183Z,11.24
2018-09-25T22:23:44.781Z,11.26
2018-09-25T22:26:18.622Z,11.15
2018-09-25T22:28:52.337Z,11.15
2018-09-25T22:31:25.854Z,11.27
2018-09-25T22:33:59.504Z,11.28
2018-09-25T22:36:33.042Z,11.33
2018-09-25T22:39:06.714Z,11.32
2018-09-25T22:41:40.350Z,11.09
2018-09-25T22:44:14.193Z,11.09
2018-09-25T22:46:48.014Z,10.90
2018-09-25T22:49:21.829Z,10.87
2018-09-25T22:51:55.324Z,10.68
2018-09-25T22:54:28.970Z,10.76
2018-09-25T22:57:02.515Z,10.74
2018-09-25T22:59:36.105Z,10.85
2018-09-25T23:02:09.876Z,10.94
2018-09-25T23:04:43.578Z,10.98
2018-09-25T23:07:17.249Z,10.82
2018-09-25T23:09:50.981Z,10.71
2018-09-25T23:12:24.613Z,10.62
2018-09-25T23:14:58.394Z,10.35
2018-09-25T23:17:32.058Z,10.23
2018-09-25T23:20:05.874Z,10.08
2018-09-25T23:22:39.545Z,10.07
2018-09-25T23:25:13.410Z,9.88
2018-09-25T23:27:47.177Z,9.77
2018-09-25T23:30:21.053Z,9.62
2018-09-25T23:32:54.659Z,9.70
2018-09-25T23:35:28.424Z,9.79
2018-09-25T23:38:02.073Z,9.92
2018-09-25T23:40:37.707Z,10.06
2018-09-25T23:43:27.809Z,9.95
2018-09-25T23:46:04.433Z,9.76
2018-09-25T23:49:38.778Z,9.73
2018-09-25T23:52:12.866Z,9.93
2018-09-25T23:54:53.444Z,9.85
2018-09-25T23:57:28.133Z,9.74
